sensor_id;sensor_type;location;lat;lon;timestamp;pressure;altitude;pressure_sealevel;temperature;humidity
4814;BME280;15375;48.540;9.268;2023-03-13T00:00:52;96877.25;;;9.50;78.94
4814;BME280;15375;48.540;9.268;2023-03-13T00:03:18;96885.41;;;9.50;79.58
4814;BME280;15375;48.540;9.268;2023-03-13T00:05:43;96865.19;;;9.32;79.79
4814;BME280;15375;48.540;9.268;2023-03-13T00:08:09;96875.34;;;9.47;78.78
4814;BME280;15375;48.540;9.268;2023-03-13T00:10:38;96872.31;;;9.45;78.98
4814;BME280;15375;48.540;9.268;2023-03-13T00:13:05;96873.91;;;9.43;80.22
4814;BME280;15375;48.540;9.268;2023-03-13T00:15:30;96858.56;;;9.33;80.16
4814;BME280;15375;48.540;9.268;2023-03-13T00:17:55;96870.75;;;9.64;78.25
4814;BME280;15375;48.540;9.268;2023-03-13T00:20:21;96864.59;;;9.60;78.98
4814;BME280;15375;48.540;9.268;2023-03-13T00:22:46;96861.03;;;9.63;78.11
4814;BME280;15375;48.540;9.268;2023-03-13T00:25:12;96873.22;;;9.75;77.85
4814;BME280;15375;48.540;9.268;2023-03-13T00:27:37;96855.09;;;9.68;78.07
4814;BME280;15375;48.540;9.268;2023-03-13T00:30:03;96846.75;;;9.59;78.62
4814;BME280;15375;48.540;9.268;2023-03-13T00:32:28;96863.03;;;9.79;77.88
4814;BME280;15375;48.540;9.268;2023-03-13T00:34:53;96831.66;;;9.54;77.53
4814;BME280;15375;48.540;9.268;2023-03-13T00:37:19;96850.91;;;9.63;78.45
4814;BME280;15375;48.540;9.268;2023-03-13T00:39:44;96869.03;;;9.70;78.62
4814;BME280;15375;48.540;9.268;2023-03-13T00:42:09;96852.06;;;9.46;79.51
4814;BME280;15375;48.540;9.268;2023-03-13T00:44:35;96846.50;;;9.34;79.52
4814;BME280;15375;48.540;9.268;2023-03-13T00:47:00;96866.84;;;9.45;79.64
4814;BME280;15375;48.540;9.268;2023-03-13T00:49:25;96868.47;;;9.43;80.99
4814;BME280;15375;48.540;9.268;2023-03-13T00:51:51;96865.94;;;9.32;80.91
4814;BME280;15375;48.540;9.268;2023-03-13T00:54:16;96859.41;;;9.30;81.35
4814;BME280;15375;48.540;9.268;2023-03-13T00:56:41;96840.22;;;9.17;81.50
4814;BME280;15375;48.540;9.268;2023-03-13T00:59:07;96834.09;;;9.13;81.62
4814;BME280;15375;48.540;9.268;2023-03-13T01:01:34;96858.63;;;9.29;81.20
4814;BME280;15375;48.540;9.268;2023-03-13T01:04:05;96854.09;;;9.23;81.31
4814;BME280;15375;48.540;9.268;2023-03-13T01:06:33;96869.50;;;9.29;81.83
4814;BME280;15375;48.540;9.268;2023-03-13T01:08:59;96852.94;;;9.24;82.56
4814;BME280;15375;48.540;9.268;2023-03-13T01:11:27;96847.25;;;9.15;82.44
4814;BME280;15375;48.540;9.268;2023-03-13T01:13:59;96846.44;;;9.18;83.15
4814;BME280;15375;48.540;9.268;2023-03-13T01:16:26;96845.50;;;9.24;82.47
4814;BME280;15375;48.540;9.268;2023-03-13T01:18:55;96828.16;;;9.18;82.05
4814;BME280;15375;48.540;9.268;2023-03-13T01:21:22;96817.84;;;9.10;82.84
4814;BME280;15375;48.540;9.268;2023-03-13T01:23:48;96833.94;;;9.20;83.01
4814;BME280;15375;48.540;9.268;2023-03-13T01:26:14;96798.25;;;8.98;83.46
4814;BME280;15375;48.540;9.268;2023-03-13T01:28:39;96795.16;;;8.96;83.29
4814;BME280;15375;48.540;9.268;2023-03-13T01:31:26;96804.38;;;9.03;83.98
4814;BME280;15375;48.540;9.268;2023-03-13T01:33:54;96809.88;;;8.99;85.82
4814;BME280;15375;48.540;9.268;2023-03-13T01:36:21;96793.72;;;8.92;86.18
4814;BME280;15375;48.540;9.268;2023-03-13T01:38:48;96807.84;;;9.23;84.67
4814;BME280;15375;48.540;9.268;2023-03-13T01:41:14;96792.03;;;9.18;84.37
4814;BME280;15375;48.540;9.268;2023-03-13T01:43:39;96792.41;;;9.36;84.22
4814;BME280;15375;48.540;9.268;2023-03-13T01:51:24;96773.13;;;9.95;81.35
4814;BME280;15375;48.540;9.268;2023-03-13T01:54:02;96766.75;;;10.01;81.96
4814;BME280;15375;48.540;9.268;2023-03-13T01:56:40;96751.53;;;10.04;80.84
4814;BME280;15375;48.540;9.268;2023-03-13T01:59:10;96741.16;;;9.99;81.96
4814;BME280;15375;48.540;9.268;2023-03-13T02:01:38;96753.91;;;10.18;81.66
4814;BME280;15375;48.540;9.268;2023-03-13T02:04:05;96759.09;;;10.29;81.40
4814;BME280;15375;48.540;9.268;2023-03-13T02:06:32;96741.63;;;10.26;81.79
4814;BME280;15375;48.540;9.268;2023-03-13T02:09:02;96734.81;;;10.34;82.08
4814;BME280;15375;48.540;9.268;2023-03-13T02:14:06;96705.63;;;10.18;82.33
4814;BME280;15375;48.540;9.268;2023-03-13T02:16:33;96711.13;;;10.31;82.99
4814;BME280;15375;48.540;9.268;2023-03-13T02:19:01;96723.50;;;10.48;82.41
4814;BME280;15375;48.540;9.268;2023-03-13T02:21:42;96723.75;;;10.54;82.53
4814;BME280;15375;48.540;9.268;2023-03-13T02:24:45;96710.22;;;10.50;82.81
4814;BME280;15375;48.540;9.268;2023-03-13T02:27:07;96712.53;;;10.52;82.68
4814;BME280;15375;48.540;9.268;2023-03-13T02:29:32;96721.72;;;10.70;82.52
4814;BME280;15375;48.540;9.268;2023-03-13T02:31:58;96723.91;;;10.75;82.73
4814;BME280;15375;48.540;9.268;2023-03-13T02:34:28;96705.50;;;10.79;82.25
4814;BME280;15375;48.540;9.268;2023-03-13T02:36:56;96671.97;;;10.66;81.76
4814;BME280;15375;48.540;9.268;2023-03-13T02:39:23;96716.31;;;10.96;83.07
4814;BME280;15375;48.540;9.268;2023-03-13T02:41:50;96696.91;;;11.06;82.20
4814;BME280;15375;48.540;9.268;2023-03-13T02:44:16;96665.25;;;10.96;81.90
4814;BME280;15375;48.540;9.268;2023-03-13T02:46:47;96699.09;;;11.24;81.37
4814;BME280;15375;48.540;9.268;2023-03-13T02:49:32;96697.38;;;11.17;82.02
4814;BME280;15375;48.540;9.268;2023-03-13T02:52:20;96678.03;;;11.12;82.35
4814;BME280;15375;48.540;9.268;2023-03-13T02:54:51;96685.69;;;11.17;83.43
4814;BME280;15375;48.540;9.268;2023-03-13T02:57:17;96673.00;;;11.23;82.97
4814;BME280;15375;48.540;9.268;2023-03-13T02:59:42;96672.25;;;11.35;82.56
4814;BME280;15375;48.540;9.268;2023-03-13T03:02:08;96657.06;;;11.34;82.03
4814;BME280;15375;48.540;9.268;2023-03-13T03:04:33;96645.03;;;11.44;81.68
4814;BME280;15375;48.540;9.268;2023-03-13T03:06:59;96636.09;;;11.31;81.85
4814;BME280;15375;48.540;9.268;2023-03-13T03:09:24;96654.09;;;11.41;82.38
4814;BME280;15375;48.540;9.268;2023-03-13T03:11:49;96661.50;;;11.53;82.29
4814;BME280;15375;48.540;9.268;2023-03-13T03:14:15;96633.78;;;11.54;82.23
4814;BME280;15375;48.540;9.268;2023-03-13T03:16:41;96581.09;;;11.20;81.87
4814;BME280;15375;48.540;9.268;2023-03-13T03:19:06;96626.78;;;11.53;81.93
4814;BME280;15375;48.540;9.268;2023-03-13T03:21:33;96623.59;;;11.68;80.26
4814;BME280;15375;48.540;9.268;2023-03-13T03:23:58;96632.44;;;11.72;80.49
4814;BME280;15375;48.540;9.268;2023-03-13T03:26:24;96632.97;;;11.79;79.70
4814;BME280;15375;48.540;9.268;2023-03-13T03:28:49;96618.22;;;11.77;79.37
4814;BME280;15375;48.540;9.268;2023-03-13T03:31:15;96586.53;;;11.67;78.28
4814;BME280;15375;48.540;9.268;2023-03-13T03:33:41;96600.06;;;11.83;78.06
4814;BME280;15375;48.540;9.268;2023-03-13T03:36:11;96581.50;;;11.78;77.68
4814;BME280;15375;48.540;9.268;2023-03-13T03:38:38;96597.59;;;11.97;77.15
4814;BME280;15375;48.540;9.268;2023-03-13T03:41:04;96582.25;;;11.78;77.66
4814;BME280;15375;48.540;9.268;2023-03-13T03:43:30;96572.97;;;11.76;77.65
4814;BME280;15375;48.540;9.268;2023-03-13T03:45:56;96585.63;;;11.82;77.61
4814;BME280;15375;48.540;9.268;2023-03-13T03:48:21;96604.41;;;11.93;77.51
4814;BME280;15375;48.540;9.268;2023-03-13T03:50:47;96619.88;;;11.96;78.27
4814;BME280;15375;48.540;9.268;2023-03-13T03:53:12;96617.63;;;11.94;78.25
4814;BME280;15375;48.540;9.268;2023-03-13T03:55:37;96609.47;;;11.82;78.92
4814;BME280;15375;48.540;9.268;2023-03-13T03:58:03;96613.63;;;11.74;79.79
4814;BME280;15375;48.540;9.268;2023-03-13T04:00:28;96612.13;;;11.73;80.72
4814;BME280;15375;48.540;9.268;2023-03-13T04:02:54;96602.16;;;11.66;80.95
4814;BME280;15375;48.540;9.268;2023-03-13T04:05:23;96630.88;;;11.83;80.53
4814;BME280;15375;48.540;9.268;2023-03-13T04:07:49;96597.50;;;11.54;81.74
4814;BME280;15375;48.540;9.268;2023-03-13T04:10:14;96617.91;;;11.62;82.54
4814;BME280;15375;48.540;9.268;2023-03-13T04:12:40;96611.69;;;11.62;82.56
4814;BME280;15375;48.540;9.268;2023-03-13T04:15:06;96619.66;;;11.56;83.78
4814;BME280;15375;48.540;9.268;2023-03-13T04:17:31;96628.38;;;11.64;84.38
4814;BME280;15375;48.540;9.268;2023-03-13T04:19:57;96626.09;;;11.62;84.43
4814;BME280;15375;48.540;9.268;2023-03-13T04:22:23;96606.25;;;11.49;84.73
4814;BME280;15375;48.540;9.268;2023-03-13T04:24:48;96611.72;;;11.49;84.70
4814;BME280;15375;48.540;9.268;2023-03-13T04:27:13;96620.75;;;11.59;85.10
4814;BME280;15375;48.540;9.268;2023-03-13T04:29:39;96599.47;;;11.53;85.27
4814;BME280;15375;48.540;9.268;2023-03-13T04:32:04;96620.31;;;11.60;85.53
4814;BME280;15375;48.540;9.268;2023-03-13T04:34:30;96615.97;;;11.50;86.25
4814;BME280;15375;48.540;9.268;2023-03-13T04:36:55;96543.25;;;10.97;86.69
4814;BME280;15375;48.540;9.268;2023-03-13T04:39:21;96599.28;;;11.35;87.01
4814;BME280;15375;48.540;9.268;2023-03-13T04:41:53;96587.63;;;11.35;87.54
4814;BME280;15375;48.540;9.268;2023-03-13T04:44:19;96568.53;;;11.22;87.50
4814;BME280;15375;48.540;9.268;2023-03-13T04:46:44;96593.72;;;11.39;87.67
4814;BME280;15375;48.540;9.268;2023-03-13T04:49:10;96604.94;;;11.41;87.76
4814;BME280;15375;48.540;9.268;2023-03-13T04:51:35;96568.63;;;11.19;87.46
4814;BME280;15375;48.540;9.268;2023-03-13T04:54:01;96585.44;;;11.30;87.34
4814;BME280;15375;48.540;9.268;2023-03-13T04:56:27;96615.09;;;11.40;87.62
4814;BME280;15375;48.540;9.268;2023-03-13T04:58:53;96605.09;;;11.37;88.43
4814;BME280;15375;48.540;9.268;2023-03-13T05:01:19;96596.44;;;11.39;87.96
4814;BME280;15375;48.540;9.268;2023-03-13T05:03:45;96593.41;;;11.37;88.40
4814;BME280;15375;48.540;9.268;2023-03-13T05:06:11;96597.44;;;11.32;88.64
4814;BME280;15375;48.540;9.268;2023-03-13T05:08:37;96587.50;;;11.26;88.54
4814;BME280;15375;48.540;9.268;2023-03-13T05:11:03;96589.47;;;11.25;87.60
4814;BME280;15375;48.540;9.268;2023-03-13T05:13:29;96563.28;;;11.15;86.92
4814;BME280;15375;48.540;9.268;2023-03-13T05:16:04;96574.72;;;11.23;86.53
4814;BME280;15375;48.540;9.268;2023-03-13T05:18:30;96581.63;;;11.27;85.26
4814;BME280;15375;48.540;9.268;2023-03-13T05:20:55;96584.91;;;11.22;84.92
4814;BME280;15375;48.540;9.268;2023-03-13T05:23:21;96569.63;;;11.12;85.52
4814;BME280;15375;48.540;9.268;2023-03-13T05:25:48;96560.47;;;11.06;85.56
4814;BME280;15375;48.540;9.268;2023-03-13T05:28:13;96566.25;;;11.08;85.43
4814;BME280;15375;48.540;9.268;2023-03-13T05:30:38;96580.09;;;11.14;86.07
4814;BME280;15375;48.540;9.268;2023-03-13T05:33:04;96581.28;;;11.13;85.78
4814;BME280;15375;48.540;9.268;2023-03-13T05:35:29;96581.09;;;11.20;85.53
4814;BME280;15375;48.540;9.268;2023-03-13T05:37:54;96574.53;;;11.17;85.85
4814;BME280;15375;48.540;9.268;2023-03-13T05:40:20;96553.38;;;11.09;86.03
4814;BME280;15375;48.540;9.268;2023-03-13T05:42:45;96561.31;;;11.16;86.79
4814;BME280;15375;48.540;9.268;2023-03-13T05:45:11;96600.56;;;11.43;87.17
4814;BME280;15375;48.540;9.268;2023-03-13T05:47:37;96587.09;;;11.62;87.13
4814;BME280;15375;48.540;9.268;2023-03-13T05:50:04;96587.53;;;11.73;86.30
4814;BME280;15375;48.540;9.268;2023-03-13T05:52:30;96575.84;;;11.72;86.20
4814;BME280;15375;48.540;9.268;2023-03-13T05:54:55;96575.72;;;11.76;85.69
4814;BME280;15375;48.540;9.268;2023-03-13T05:57:21;96554.94;;;11.78;85.48
4814;BME280;15375;48.540;9.268;2023-03-13T05:59:46;96562.00;;;11.88;85.17
4814;BME280;15375;48.540;9.268;2023-03-13T06:02:12;96558.53;;;11.88;85.28
4814;BME280;15375;48.540;9.268;2023-03-13T06:04:37;96552.50;;;11.93;85.19
4814;BME280;15375;48.540;9.268;2023-03-13T06:07:02;96552.03;;;11.94;85.79
4814;BME280;15375;48.540;9.268;2023-03-13T06:09:28;96559.59;;;11.90;85.80
4814;BME280;15375;48.540;9.268;2023-03-13T06:11:53;96547.19;;;11.98;85.74
4814;BME280;15375;48.540;9.268;2023-03-13T06:14:19;96535.38;;;12.01;85.72
4814;BME280;15375;48.540;9.268;2023-03-13T06:16:44;96542.22;;;12.06;85.90
4814;BME280;15375;48.540;9.268;2023-03-13T06:19:09;96571.59;;;12.14;86.37
4814;BME280;15375;48.540;9.268;2023-03-13T06:21:35;96552.94;;;12.13;86.63
4814;BME280;15375;48.540;9.268;2023-03-13T06:24:01;96561.75;;;12.17;86.43
4814;BME280;15375;48.540;9.268;2023-03-13T06:26:26;96563.38;;;12.36;86.16
4814;BME280;15375;48.540;9.268;2023-03-13T06:28:54;96551.19;;;12.28;86.19
4814;BME280;15375;48.540;9.268;2023-03-13T06:31:20;96545.47;;;12.35;86.29
4814;BME280;15375;48.540;9.268;2023-03-13T06:33:45;96555.81;;;12.40;86.26
4814;BME280;15375;48.540;9.268;2023-03-13T06:36:11;96550.47;;;12.37;86.04
4814;BME280;15375;48.540;9.268;2023-03-13T06:38:36;96562.69;;;12.45;85.88
4814;BME280;15375;48.540;9.268;2023-03-13T06:41:02;96515.16;;;12.21;85.73
4814;BME280;15375;48.540;9.268;2023-03-13T06:43:27;96579.69;;;12.70;85.29
4814;BME280;15375;48.540;9.268;2023-03-13T06:45:53;96529.97;;;12.41;85.03
4814;BME280;15375;48.540;9.268;2023-03-13T06:48:18;96583.78;;;12.75;85.42
4814;BME280;15375;48.540;9.268;2023-03-13T06:50:44;96592.09;;;12.62;85.90
4814;BME280;15375;48.540;9.268;2023-03-13T06:53:18;96576.72;;;12.56;86.33
4814;BME280;15375;48.540;9.268;2023-03-13T06:55:44;96577.22;;;12.63;85.97
4814;BME280;15375;48.540;9.268;2023-03-13T06:58:10;96570.91;;;12.54;86.85
4814;BME280;15375;48.540;9.268;2023-03-13T07:00:36;96577.91;;;12.55;88.08
4814;BME280;15375;48.540;9.268;2023-03-13T07:03:04;96564.22;;;12.46;87.90
4814;BME280;15375;48.540;9.268;2023-03-13T07:05:29;96583.47;;;12.73;87.08
4814;BME280;15375;48.540;9.268;2023-03-13T07:07:55;96551.66;;;12.66;87.30
4814;BME280;15375;48.540;9.268;2023-03-13T07:10:20;96559.16;;;12.75;86.87
4814;BME280;15375;48.540;9.268;2023-03-13T07:12:48;96569.53;;;12.89;87.39
4814;BME280;15375;48.540;9.268;2023-03-13T07:15:14;96553.34;;;12.64;88.05
4814;BME280;15375;48.540;9.268;2023-03-13T07:17:39;96568.84;;;12.67;88.26
4814;BME280;15375;48.540;9.268;2023-03-13T07:20:05;96580.44;;;12.71;89.07
4814;BME280;15375;48.540;9.268;2023-03-13T07:22:33;96580.25;;;12.65;89.18
4814;BME280;15375;48.540;9.268;2023-03-13T07:24:59;96574.31;;;12.67;89.49
4814;BME280;15375;48.540;9.268;2023-03-13T07:27:24;96582.72;;;12.72;89.53
4814;BME280;15375;48.540;9.268;2023-03-13T07:29:49;96599.00;;;12.76;89.75
4814;BME280;15375;48.540;9.268;2023-03-13T07:32:15;96590.44;;;12.65;89.81
4814;BME280;15375;48.540;9.268;2023-03-13T07:34:40;96600.97;;;12.75;91.09
4814;BME280;15375;48.540;9.268;2023-03-13T07:37:10;96577.03;;;12.58;90.62
4814;BME280;15375;48.540;9.268;2023-03-13T07:39:35;96585.47;;;12.81;90.97
4814;BME280;15375;48.540;9.268;2023-03-13T07:42:01;96574.59;;;12.91;89.88
4814;BME280;15375;48.540;9.268;2023-03-13T07:44:26;96583.91;;;13.02;90.04
4814;BME280;15375;48.540;9.268;2023-03-13T07:46:51;96590.03;;;13.06;89.95
4814;BME280;15375;48.540;9.268;2023-03-13T07:49:17;96562.69;;;13.15;89.42
4814;BME280;15375;48.540;9.268;2023-03-13T07:51:42;96555.06;;;13.19;88.44
4814;BME280;15375;48.540;9.268;2023-03-13T07:54:08;96600.00;;;13.31;88.59
4814;BME280;15375;48.540;9.268;2023-03-13T07:56:34;96582.50;;;13.28;88.66
4814;BME280;15375;48.540;9.268;2023-03-13T07:58:59;96555.06;;;13.10;89.38
4814;BME280;15375;48.540;9.268;2023-03-13T08:01:26;96555.53;;;13.18;89.72
4814;BME280;15375;48.540;9.268;2023-03-13T08:03:52;96576.72;;;13.26;90.26
4814;BME280;15375;48.540;9.268;2023-03-13T08:06:29;96582.50;;;13.37;90.40
4814;BME280;15375;48.540;9.268;2023-03-13T08:08:58;96555.72;;;13.23;90.69
4814;BME280;15375;48.540;9.268;2023-03-13T08:11:25;96549.47;;;13.23;90.72
4814;BME280;15375;48.540;9.268;2023-03-13T08:13:51;96570.34;;;13.38;90.23
4814;BME280;15375;48.540;9.268;2023-03-13T08:16:22;96566.09;;;13.47;90.22
4814;BME280;15375;48.540;9.268;2023-03-13T08:18:50;96560.16;;;13.48;89.72
4814;BME280;15375;48.540;9.268;2023-03-13T08:21:21;96548.13;;;13.36;89.99
4814;BME280;15375;48.540;9.268;2023-03-13T08:23:52;96557.88;;;13.47;90.90
4814;BME280;15375;48.540;9.268;2023-03-13T08:26:20;96523.63;;;13.33;90.49
4814;BME280;15375;48.540;9.268;2023-03-13T08:28:47;96518.75;;;13.46;90.24
4814;BME280;15375;48.540;9.268;2023-03-13T08:31:18;96523.63;;;13.60;90.60
4814;BME280;15375;48.540;9.268;2023-03-13T08:33:44;96518.47;;;13.71;89.26
4814;BME280;15375;48.540;9.268;2023-03-13T08:36:14;96519.78;;;14.03;88.97
4814;BME280;15375;48.540;9.268;2023-03-13T08:38:41;96492.22;;;14.06;88.28
4814;BME280;15375;48.540;9.268;2023-03-13T08:41:09;96463.31;;;13.87;87.60
4814;BME280;15375;48.540;9.268;2023-03-13T08:43:35;96444.09;;;14.05;87.15
4814;BME280;15375;48.540;9.268;2023-03-13T08:46:00;96474.25;;;14.05;87.37
4814;BME280;15375;48.540;9.268;2023-03-13T08:48:25;96472.41;;;14.12;86.33
4814;BME280;15375;48.540;9.268;2023-03-13T08:51:07;96491.25;;;14.37;85.63
4814;BME280;15375;48.540;9.268;2023-03-13T08:53:35;96479.97;;;14.26;86.28
4814;BME280;15375;48.540;9.268;2023-03-13T08:56:01;96463.09;;;14.18;85.90
4814;BME280;15375;48.540;9.268;2023-03-13T08:58:27;96462.84;;;14.07;87.05
4814;BME280;15375;48.540;9.268;2023-03-13T09:00:53;96459.66;;;13.99;87.57
4814;BME280;15375;48.540;9.268;2023-03-13T09:03:18;96460.97;;;14.13;86.81
4814;BME280;15375;48.540;9.268;2023-03-13T09:05:44;96486.91;;;14.12;87.36
4814;BME280;15375;48.540;9.268;2023-03-13T09:08:12;96477.13;;;14.11;87.07
4814;BME280;15375;48.540;9.268;2023-03-13T09:10:38;96444.81;;;14.15;86.78
4814;BME280;15375;48.540;9.268;2023-03-13T09:13:03;96469.00;;;14.26;87.17
4814;BME280;15375;48.540;9.268;2023-03-13T09:15:28;96448.75;;;14.23;87.13
4814;BME280;15375;48.540;9.268;2023-03-13T09:17:54;96495.06;;;14.39;86.39
4814;BME280;15375;48.540;9.268;2023-03-13T09:20:20;96455.78;;;14.24;86.44
4814;BME280;15375;48.540;9.268;2023-03-13T09:22:45;96454.38;;;14.38;85.94
4814;BME280;15375;48.540;9.268;2023-03-13T09:25:12;96463.34;;;14.47;85.52
4814;BME280;15375;48.540;9.268;2023-03-13T09:27:38;96502.50;;;14.81;85.23
4814;BME280;15375;48.540;9.268;2023-03-13T09:30:04;96494.16;;;15.08;82.65
4814;BME280;15375;48.540;9.268;2023-03-13T09:32:29;96463.03;;;15.49;82.14
4814;BME280;15375;48.540;9.268;2023-03-13T09:34:55;96488.63;;;16.23;78.15
4814;BME280;15375;48.540;9.268;2023-03-13T09:37:24;96497.06;;;16.05;76.43
4814;BME280;15375;48.540;9.268;2023-03-13T09:39:50;96469.34;;;16.52;74.32
4814;BME280;15375;48.540;9.268;2023-03-13T09:42:18;96494.56;;;17.35;71.09
4814;BME280;15375;48.540;9.268;2023-03-13T09:44:47;96485.19;;;17.87;69.37
4814;BME280;15375;48.540;9.268;2023-03-13T09:49:54;96473.84;;;17.85;65.68
4814;BME280;15375;48.540;9.268;2023-03-13T09:52:24;96476.03;;;17.55;66.04
4814;BME280;15375;48.540;9.268;2023-03-13T09:57:35;96490.22;;;16.73;68.32
4814;BME280;15375;48.540;9.268;2023-03-13T10:00:17;96489.84;;;17.00;68.80
4814;BME280;15375;48.540;9.268;2023-03-13T10:02:55;96496.94;;;17.07;67.74
4814;BME280;15375;48.540;9.268;2023-03-13T10:05:28;96496.19;;;17.06;68.98
4814;BME280;15375;48.540;9.268;2023-03-13T10:08:16;96495.00;;;16.93;68.60
4814;BME280;15375;48.540;9.268;2023-03-13T10:10:44;96491.38;;;17.01;69.87
4814;BME280;15375;48.540;9.268;2023-03-13T10:13:18;96493.13;;;17.19;67.40
4814;BME280;15375;48.540;9.268;2023-03-13T10:15:50;96522.59;;;17.33;66.80
4814;BME280;15375;48.540;9.268;2023-03-13T10:18:19;96504.19;;;17.59;63.29
4814;BME280;15375;48.540;9.268;2023-03-13T10:20:48;96501.88;;;17.38;63.86
4814;BME280;15375;48.540;9.268;2023-03-13T10:23:31;96488.66;;;17.21;64.29
4814;BME280;15375;48.540;9.268;2023-03-13T10:25:59;96473.50;;;17.72;62.19
4814;BME280;15375;48.540;9.268;2023-03-13T10:28:25;96477.19;;;18.46;59.86
4814;BME280;15375;48.540;9.268;2023-03-13T10:33:26;96462.34;;;18.43;59.30
4814;BME280;15375;48.540;9.268;2023-03-13T10:36:06;96424.78;;;18.52;57.79
4814;BME280;15375;48.540;9.268;2023-03-13T10:38:35;96424.28;;;18.90;56.60
4814;BME280;15375;48.540;9.268;2023-03-13T10:41:27;96433.00;;;19.25;55.40
4814;BME280;15375;48.540;9.268;2023-03-13T10:44:03;96438.22;;;19.12;55.27
4814;BME280;15375;48.540;9.268;2023-03-13T10:46:31;96408.50;;;19.01;54.45
4814;BME280;15375;48.540;9.268;2023-03-13T10:49:00;96426.53;;;18.91;56.33
4814;BME280;15375;48.540;9.268;2023-03-13T10:51:38;96422.16;;;19.22;55.07
4814;BME280;15375;48.540;9.268;2023-03-13T10:54:13;96401.56;;;19.23;55.59
4814;BME280;15375;48.540;9.268;2023-03-13T10:56:39;96405.97;;;19.57;54.75
4814;BME280;15375;48.540;9.268;2023-03-13T10:59:23;96399.28;;;20.13;53.82
4814;BME280;15375;48.540;9.268;2023-03-13T11:01:50;96400.78;;;20.20;53.03
4814;BME280;15375;48.540;9.268;2023-03-13T11:04:34;96388.22;;;20.35;52.06
4814;BME280;15375;48.540;9.268;2023-03-13T11:07:13;96379.34;;;20.65;52.50
4814;BME280;15375;48.540;9.268;2023-03-13T11:09:40;96377.56;;;20.84;52.24
4814;BME280;15375;48.540;9.268;2023-03-13T11:12:16;96371.09;;;19.98;53.06
4814;BME280;15375;48.540;9.268;2023-03-13T11:14:44;96381.63;;;20.22;52.71
4814;BME280;15375;48.540;9.268;2023-03-13T11:20:22;96365.72;;;19.45;54.95
4814;BME280;15375;48.540;9.268;2023-03-13T11:22:54;96354.03;;;19.19;54.91
4814;BME280;15375;48.540;9.268;2023-03-13T11:25:22;96356.06;;;19.18;56.13
4814;BME280;15375;48.540;9.268;2023-03-13T11:30:57;96348.78;;;19.26;56.24
4814;BME280;15375;48.540;9.268;2023-03-13T11:33:37;96348.88;;;19.37;56.15
4814;BME280;15375;48.540;9.268;2023-03-13T11:36:27;96340.34;;;19.41;55.36
4814;BME280;15375;48.540;9.268;2023-03-13T11:52:57;96285.81;;;19.86;53.81
4814;BME280;15375;48.540;9.268;2023-03-13T11:55:31;96285.78;;;19.74;54.08
4814;BME280;15375;48.540;9.268;2023-03-13T12:00:33;96261.38;;;19.56;54.52
4814;BME280;15375;48.540;9.268;2023-03-13T12:05:40;96257.13;;;19.83;53.40
4814;BME280;15375;48.540;9.268;2023-03-13T12:11:03;96234.09;;;21.01;53.18
4814;BME280;15375;48.540;9.268;2023-03-13T12:13:35;96212.78;;;21.26;53.46
4814;BME280;15375;48.540;9.268;2023-03-13T12:16:09;96214.31;;;21.56;50.31
4814;BME280;15375;48.540;9.268;2023-03-13T12:18:40;96183.91;;;21.40;50.95
4814;BME280;15375;48.540;9.268;2023-03-13T12:21:21;96168.28;;;21.42;50.33
4814;BME280;15375;48.540;9.268;2023-03-13T12:24:05;96178.94;;;21.62;50.46
4814;BME280;15375;48.540;9.268;2023-03-13T12:26:43;96171.88;;;21.91;49.57
4814;BME280;15375;48.540;9.268;2023-03-13T12:32:23;96152.84;;;22.44;48.85
4814;BME280;15375;48.540;9.268;2023-03-13T12:35:07;96169.88;;;21.92;47.33
4814;BME280;15375;48.540;9.268;2023-03-13T12:37:48;96149.84;;;21.75;47.56
4814;BME280;15375;48.540;9.268;2023-03-13T12:40:22;96138.06;;;21.63;47.38
4814;BME280;15375;48.540;9.268;2023-03-13T12:42:55;96119.94;;;20.97;47.41
4814;BME280;15375;48.540;9.268;2023-03-13T12:45:24;96114.31;;;21.14;47.33
4814;BME280;15375;48.540;9.268;2023-03-13T12:50:25;96102.28;;;21.35;47.10
4814;BME280;15375;48.540;9.268;2023-03-13T12:53:44;96099.63;;;21.48;46.51
4814;BME280;15375;48.540;9.268;2023-03-13T12:59:14;96065.97;;;21.57;45.88
4814;BME280;15375;48.540;9.268;2023-03-13T13:01:44;96063.63;;;21.43;45.06
4814;BME280;15375;48.540;9.268;2023-03-13T13:04:13;96054.72;;;21.50;45.59
4814;BME280;15375;48.540;9.268;2023-03-13T13:06:54;96031.31;;;21.70;44.81
4814;BME280;15375;48.540;9.268;2023-03-13T13:09:33;96035.66;;;21.41;44.42
4814;BME280;15375;48.540;9.268;2023-03-13T13:12:19;96023.69;;;21.51;44.63
4814;BME280;15375;48.540;9.268;2023-03-13T13:22:55;96000.84;;;21.64;43.30
4814;BME280;15375;48.540;9.268;2023-03-13T13:25:34;95981.69;;;21.42;43.19
4814;BME280;15375;48.540;9.268;2023-03-13T13:30:50;95994.59;;;21.58;44.35
4814;BME280;15375;48.540;9.268;2023-03-13T13:35:47;95974.69;;;21.59;43.48
4814;BME280;15375;48.540;9.268;2023-03-13T13:38:32;95950.94;;;21.40;43.49
4814;BME280;15375;48.540;9.268;2023-03-13T13:46:32;95970.78;;;21.68;44.72
4814;BME280;15375;48.540;9.268;2023-03-13T13:49:14;95953.50;;;21.75;44.59
4814;BME280;15375;48.540;9.268;2023-03-13T13:51:42;95953.47;;;21.62;44.57
4814;BME280;15375;48.540;9.268;2023-03-13T13:54:54;95945.09;;;21.43;44.38
4814;BME280;15375;48.540;9.268;2023-03-13T13:57:25;95930.13;;;21.52;44.92
4814;BME280;15375;48.540;9.268;2023-03-13T14:02:34;95922.34;;;21.69;44.58
4814;BME280;15375;48.540;9.268;2023-03-13T14:10:05;95908.47;;;21.69;44.64
4814;BME280;15375;48.540;9.268;2023-03-13T14:12:46;95896.28;;;22.09;44.71
4814;BME280;15375;48.540;9.268;2023-03-13T14:15:18;95882.19;;;22.07;43.93
4814;BME280;15375;48.540;9.268;2023-03-13T14:20:27;95908.94;;;22.23;44.78
4814;BME280;15375;48.540;9.268;2023-03-13T14:22:55;95872.91;;;22.05;45.29
4814;BME280;15375;48.540;9.268;2023-03-13T14:25:22;95868.81;;;22.06;43.79
4814;BME280;15375;48.540;9.268;2023-03-13T14:27:50;95882.06;;;22.32;43.77
4814;BME280;15375;48.540;9.268;2023-03-13T14:30:17;95860.59;;;22.32;44.00
4814;BME280;15375;48.540;9.268;2023-03-13T14:32:43;95875.44;;;22.79;43.32
4814;BME280;15375;48.540;9.268;2023-03-13T14:35:10;95856.50;;;23.17;43.45
4814;BME280;15375;48.540;9.268;2023-03-13T14:37:51;95861.63;;;23.39;43.07
4814;BME280;15375;48.540;9.268;2023-03-13T14:40:29;95838.44;;;22.98;41.53
4814;BME280;15375;48.540;9.268;2023-03-13T14:42:57;95821.44;;;22.88;42.98